sensor_id;sensor_type;location;lat;lon;timestamp;pressure;altitude;pressure_sealevel;temperature;humidity
16834;BME280;8533;48.426;10.868;2023-08-31T00:02:20;95632.59;;;12.77;100.00
16834;BME280;8533;48.426;10.868;2023-08-31T00:04:45;95610.38;;;12.59;100.00
16834;BME280;8533;48.426;10.868;2023-08-31T00:07:10;95619.00;;;12.70;100.00
16834;BME280;8533;48.426;10.868;2023-08-31T00:09:36;95621.13;;;12.63;100.00
16834;BME280;8533;48.426;10.868;2023-08-31T00:12:02;95632.13;;;12.70;100.00
16834;BME280;8533;48.426;10.868;2023-08-31T00:14:28;95634.00;;;12.64;100.00
16834;BME280;8533;48.426;10.868;2023-08-31T00:16:53;95640.53;;;12.67;100.00
16834;BME280;8533;48.426;10.868;2023-08-31T00:19:18;95637.63;;;12.68;100.00
16834;BME280;8533;48.426;10.868;2023-08-31T00:21:44;95635.78;;;12.69;100.00
16834;BME280;8533;48.426;10.868;2023-08-31T00:24:10;95621.66;;;12.65;100.00
16834;BME280;8533;48.426;10.868;2023-08-31T00:26:36;95634.72;;;12.75;100.00
16834;BME280;8533;48.426;10.868;2023-08-31T00:29:06;95635.22;;;12.77;100.00
16834;BME280;8533;48.426;10.868;2023-08-31T00:31:32;95605.97;;;12.54;100.00
16834;BME280;8533;48.426;10.868;2023-08-31T00:33:57;95640.44;;;12.82;100.00
16834;BME280;8533;48.426;10.868;2023-08-31T00:36:22;95645.16;;;12.85;100.00
16834;BME280;8533;48.426;10.868;2023-08-31T00:38:48;95640.16;;;12.88;100.00
16834;BME280;8533;48.426;10.868;2023-08-31T00:41:13;95633.31;;;12.92;100.00
16834;BME280;8533;48.426;10.868;2023-08-31T00:43:38;95625.94;;;12.94;100.00
16834;BME280;8533;48.426;10.868;2023-08-31T00:46:04;95630.94;;;12.96;100.00
16834;BME280;8533;48.426;10.868;2023-08-31T00:48:29;95645.06;;;13.00;100.00
16834;BME280;8533;48.426;10.868;2023-08-31T00:50:54;95621.00;;;12.88;100.00
16834;BME280;8533;48.426;10.868;2023-08-31T00:53:21;95646.34;;;13.08;100.00
16834;BME280;8533;48.426;10.868;2023-08-31T00:55:46;95645.53;;;13.12;100.00
16834;BME280;8533;48.426;10.868;2023-08-31T00:58:12;95619.16;;;12.88;100.00
16834;BME280;8533;48.426;10.868;2023-08-31T01:01:01;95626.16;;;12.98;100.00
16834;BME280;8533;48.426;10.868;2023-08-31T01:06:29;95603.63;;;12.92;100.00
16834;BME280;8533;48.426;10.868;2023-08-31T01:14:16;95646.25;;;13.28;100.00
16834;BME280;8533;48.426;10.868;2023-08-31T01:16:45;95667.94;;;13.44;100.00
16834;BME280;8533;48.426;10.868;2023-08-31T01:21:44;95537.19;;;12.57;100.00
16834;BME280;8533;48.426;10.868;2023-08-31T01:24:13;95644.41;;;13.28;100.00
16834;BME280;8533;48.426;10.868;2023-08-31T01:26:39;95689.47;;;13.41;100.00
16834;BME280;8533;48.426;10.868;2023-08-31T01:29:06;95654.28;;;13.42;100.00
16834;BME280;8533;48.426;10.868;2023-08-31T01:31:31;95668.47;;;13.41;100.00
16834;BME280;8533;48.426;10.868;2023-08-31T01:33:57;95580.06;;;12.82;100.00
16834;BME280;8533;48.426;10.868;2023-08-31T01:36:29;95656.97;;;13.31;100.00
16834;BME280;8533;48.426;10.868;2023-08-31T01:39:06;95625.63;;;13.01;100.00
16834;BME280;8533;48.426;10.868;2023-08-31T01:41:36;95675.88;;;13.33;100.00
16834;BME280;8533;48.426;10.868;2023-08-31T01:44:04;95686.38;;;13.33;100.00
16834;BME280;8533;48.426;10.868;2023-08-31T01:46:31;95657.63;;;13.13;100.00
16834;BME280;8533;48.426;10.868;2023-08-31T01:48:56;95694.00;;;13.35;100.00
16834;BME280;8533;48.426;10.868;2023-08-31T01:51:22;95695.84;;;13.34;100.00
16834;BME280;8533;48.426;10.868;2023-08-31T01:53:47;95694.31;;;13.28;100.00
16834;BME280;8533;48.426;10.868;2023-08-31T01:56:13;95636.97;;;12.91;100.00
16834;BME280;8533;48.426;10.868;2023-08-31T01:58:39;95685.31;;;13.34;100.00
16834;BME280;8533;48.426;10.868;2023-08-31T02:01:04;95688.47;;;13.36;100.00
16834;BME280;8533;48.426;10.868;2023-08-31T02:03:29;95685.06;;;13.36;100.00
16834;BME280;8533;48.426;10.868;2023-08-31T02:05:54;95683.22;;;13.36;100.00
16834;BME280;8533;48.426;10.868;2023-08-31T02:08:20;95635.81;;;13.08;100.00
16834;BME280;8533;48.426;10.868;2023-08-31T02:10:48;95685.06;;;13.36;100.00
16834;BME280;8533;48.426;10.868;2023-08-31T02:13:14;95672.97;;;13.35;100.00
16834;BME280;8533;48.426;10.868;2023-08-31T02:15:39;95666.69;;;13.31;100.00
16834;BME280;8533;48.426;10.868;2023-08-31T02:18:05;95655.97;;;13.22;100.00
16834;BME280;8533;48.426;10.868;2023-08-31T02:20:30;95673.78;;;13.30;100.00
16834;BME280;8533;48.426;10.868;2023-08-31T02:22:56;95675.34;;;13.31;100.00
16834;BME280;8533;48.426;10.868;2023-08-31T02:25:21;95678.50;;;13.33;100.00
16834;BME280;8533;48.426;10.868;2023-08-31T02:27:47;95679.81;;;13.36;100.00
16834;BME280;8533;48.426;10.868;2023-08-31T02:30:12;95688.75;;;13.35;100.00
16834;BME280;8533;48.426;10.868;2023-08-31T02:32:37;95502.81;;;12.15;100.00
16834;BME280;8533;48.426;10.868;2023-08-31T02:35:04;95583.84;;;12.66;100.00
16834;BME280;8533;48.426;10.868;2023-08-31T02:37:29;95673.63;;;13.17;100.00
16834;BME280;8533;48.426;10.868;2023-08-31T02:39:54;95700.09;;;13.25;100.00
16834;BME280;8533;48.426;10.868;2023-08-31T02:42:19;95697.72;;;13.24;100.00
16834;BME280;8533;48.426;10.868;2023-08-31T02:44:45;95675.47;;;13.06;100.00
16834;BME280;8533;48.426;10.868;2023-08-31T02:47:10;95696.16;;;13.23;100.00
16834;BME280;8533;48.426;10.868;2023-08-31T02:49:35;95690.13;;;13.22;100.00
16834;BME280;8533;48.426;10.868;2023-08-31T02:52:01;95689.59;;;13.25;100.00
16834;BME280;8533;48.426;10.868;2023-08-31T02:54:26;95686.97;;;13.25;100.00
16834;BME280;8533;48.426;10.868;2023-08-31T02:56:51;95685.13;;;13.26;100.00
16834;BME280;8533;48.426;10.868;2023-08-31T02:59:17;95669.41;;;13.21;100.00
16834;BME280;8533;48.426;10.868;2023-08-31T03:01:42;95688.28;;;13.28;100.00
16834;BME280;8533;48.426;10.868;2023-08-31T03:04:11;95698.78;;;13.28;100.00
16834;BME280;8533;48.426;10.868;2023-08-31T03:06:37;95700.63;;;13.27;100.00
16834;BME280;8533;48.426;10.868;2023-08-31T03:09:02;95686.75;;;13.17;100.00
16834;BME280;8533;48.426;10.868;2023-08-31T03:11:28;95705.88;;;13.22;100.00
16834;BME280;8533;48.426;10.868;2023-08-31T03:13:53;95705.13;;;13.17;100.00
16834;BME280;8533;48.426;10.868;2023-08-31T03:16:18;95707.75;;;13.17;100.00
16834;BME280;8533;48.426;10.868;2023-08-31T03:18:44;95712.78;;;13.13;100.00
16834;BME280;8533;48.426;10.868;2023-08-31T03:21:09;95702.81;;;13.05;100.00
16834;BME280;8533;48.426;10.868;2023-08-31T03:23:35;95701.75;;;13.06;100.00
16834;BME280;8533;48.426;10.868;2023-08-31T03:26:06;95690.22;;;13.02;100.00
16834;BME280;8533;48.426;10.868;2023-08-31T03:28:32;95691.84;;;12.93;100.00
16834;BME280;8533;48.426;10.868;2023-08-31T03:30:57;95717.78;;;12.99;100.00
16834;BME280;8533;48.426;10.868;2023-08-31T03:33:22;95686.69;;;12.73;100.00
16834;BME280;8533;48.426;10.868;2023-08-31T03:35:48;95725.44;;;12.91;100.00
16834;BME280;8533;48.426;10.868;2023-08-31T03:38:13;95738.06;;;12.89;100.00
16834;BME280;8533;48.426;10.868;2023-08-31T03:40:39;95736.25;;;12.84;100.00
16834;BME280;8533;48.426;10.868;2023-08-31T03:43:04;95739.38;;;12.81;100.00
16834;BME280;8533;48.426;10.868;2023-08-31T03:45:29;95735.47;;;12.79;100.00
16834;BME280;8533;48.426;10.868;2023-08-31T03:47:54;95758.06;;;12.75;100.00
16834;BME280;8533;48.426;10.868;2023-08-31T03:50:20;95754.66;;;12.69;100.00
16834;BME280;8533;48.426;10.868;2023-08-31T03:52:45;95744.97;;;12.65;100.00
16834;BME280;8533;48.426;10.868;2023-08-31T03:55:11;95749.97;;;12.61;100.00
16834;BME280;8533;48.426;10.868;2023-08-31T03:57:36;95741.31;;;12.60;100.00
16834;BME280;8533;48.426;10.868;2023-08-31T04:00:01;95752.84;;;12.59;100.00
16834;BME280;8533;48.426;10.868;2023-08-31T04:02:33;95759.41;;;12.57;100.00
16834;BME280;8533;48.426;10.868;2023-08-31T04:04:58;95755.72;;;12.58;100.00
16834;BME280;8533;48.426;10.868;2023-08-31T04:07:23;95746.06;;;12.48;100.00
16834;BME280;8533;48.426;10.868;2023-08-31T04:09:49;95763.09;;;12.56;100.00
16834;BME280;8533;48.426;10.868;2023-08-31T04:12:14;95760.75;;;12.54;100.00
16834;BME280;8533;48.426;10.868;2023-08-31T04:14:39;95762.31;;;12.50;100.00
16834;BME280;8533;48.426;10.868;2023-08-31T04:17:04;95775.97;;;12.52;100.00
16834;BME280;8533;48.426;10.868;2023-08-31T04:19:30;95745.84;;;12.30;100.00
16834;BME280;8533;48.426;10.868;2023-08-31T04:21:55;95757.88;;;12.41;100.00
16834;BME280;8533;48.426;10.868;2023-08-31T04:24:20;95771.53;;;12.48;100.00
16834;BME280;8533;48.426;10.868;2023-08-31T04:26:46;95777.81;;;12.47;100.00
16834;BME280;8533;48.426;10.868;2023-08-31T04:29:13;95774.66;;;12.45;100.00
16834;BME280;8533;48.426;10.868;2023-08-31T04:31:38;95777.53;;;12.43;100.00
16834;BME280;8533;48.426;10.868;2023-08-31T04:34:04;95778.06;;;12.45;100.00
16834;BME280;8533;48.426;10.868;2023-08-31T04:36:29;95778.34;;;12.44;100.00
16834;BME280;8533;48.426;10.868;2023-08-31T04:38:55;95783.06;;;12.47;100.00
16834;BME280;8533;48.426;10.868;2023-08-31T04:41:20;95783.56;;;12.49;100.00
16834;BME280;8533;48.426;10.868;2023-08-31T04:43:46;95787.53;;;12.46;100.00
16834;BME280;8533;48.426;10.868;2023-08-31T04:46:15;95794.31;;;12.52;100.00
16834;BME280;8533;48.426;10.868;2023-08-31T04:48:40;95808.50;;;12.51;100.00
16834;BME280;8533;48.426;10.868;2023-08-31T04:51:05;95785.72;;;12.21;100.00
16834;BME280;8533;48.426;10.868;2023-08-31T04:53:31;95821.88;;;12.50;100.00
16834;BME280;8533;48.426;10.868;2023-08-31T04:55:58;95790.94;;;12.27;100.00
16834;BME280;8533;48.426;10.868;2023-08-31T04:58:23;95816.09;;;12.53;100.00
16834;BME280;8533;48.426;10.868;2023-08-31T05:00:48;95814.78;;;12.50;100.00
16834;BME280;8533;48.426;10.868;2023-08-31T05:03:14;95817.94;;;12.52;100.00
16834;BME280;8533;48.426;10.868;2023-08-31T05:05:39;95830.00;;;12.53;100.00
16834;BME280;8533;48.426;10.868;2023-08-31T05:08:07;95809.81;;;12.44;100.00
16834;BME280;8533;48.426;10.868;2023-08-31T05:10:33;95798.03;;;12.36;100.00
16834;BME280;8533;48.426;10.868;2023-08-31T05:12:59;95836.03;;;12.59;100.00
16834;BME280;8533;48.426;10.868;2023-08-31T05:15:24;95830.53;;;12.60;100.00
16834;BME280;8533;48.426;10.868;2023-08-31T05:17:52;95802.22;;;12.47;100.00
16834;BME280;8533;48.426;10.868;2023-08-31T05:20:17;95828.16;;;12.64;100.00
16834;BME280;8533;48.426;10.868;2023-08-31T05:22:43;95827.63;;;12.67;100.00
16834;BME280;8533;48.426;10.868;2023-08-31T05:25:08;95829.47;;;12.72;100.00
16834;BME280;8533;48.426;10.868;2023-08-31T05:27:33;95835.22;;;12.74;100.00
16834;BME280;8533;48.426;10.868;2023-08-31T05:29:59;95822.91;;;12.69;100.00
16834;BME280;8533;48.426;10.868;2023-08-31T05:32:28;95837.84;;;12.79;100.00
16834;BME280;8533;48.426;10.868;2023-08-31T05:34:53;95834.41;;;12.83;100.00
16834;BME280;8533;48.426;10.868;2023-08-31T05:37:18;95829.41;;;12.87;100.00
16834;BME280;8533;48.426;10.868;2023-08-31T05:39:48;95842.53;;;12.92;100.00
16834;BME280;8533;48.426;10.868;2023-08-31T05:42:14;95829.41;;;12.87;100.00
16834;BME280;8533;48.426;10.868;2023-08-31T05:44:40;95838.03;;;13.03;100.00
16834;BME280;8533;48.426;10.868;2023-08-31T05:47:05;95842.22;;;13.09;100.00
16834;BME280;8533;48.426;10.868;2023-08-31T05:49:30;95841.97;;;13.15;100.00
16834;BME280;8533;48.426;10.868;2023-08-31T05:51:55;95850.88;;;13.19;100.00
16834;BME280;8533;48.426;10.868;2023-08-31T05:54:21;95846.66;;;13.23;100.00
16834;BME280;8533;48.426;10.868;2023-08-31T05:56:46;95855.31;;;13.29;100.00
16834;BME280;8533;48.426;10.868;2023-08-31T05:59:12;95851.88;;;13.33;100.00
16834;BME280;8533;48.426;10.868;2023-08-31T06:01:38;95827.25;;;13.14;100.00
16834;BME280;8533;48.426;10.868;2023-08-31T06:04:03;95845.81;;;13.43;100.00
16834;BME280;8533;48.426;10.868;2023-08-31T06:06:29;95849.44;;;13.47;100.00
16834;BME280;8533;48.426;10.868;2023-08-31T06:08:54;95813.03;;;13.25;100.00
16834;BME280;8533;48.426;10.868;2023-08-31T06:11:21;95829.31;;;13.27;100.00
16834;BME280;8533;48.426;10.868;2023-08-31T06:13:47;95828.28;;;13.28;100.00
16834;BME280;8533;48.426;10.868;2023-08-31T06:16:12;95851.34;;;13.36;100.00
16834;BME280;8533;48.426;10.868;2023-08-31T06:18:37;95856.31;;;13.38;100.00
16834;BME280;8533;48.426;10.868;2023-08-31T06:21:02;95854.19;;;13.50;100.00
16834;BME280;8533;48.426;10.868;2023-08-31T06:23:28;95836.31;;;13.52;100.00
16834;BME280;8533;48.426;10.868;2023-08-31T06:25:53;95864.03;;;13.73;100.00
16834;BME280;8533;48.426;10.868;2023-08-31T06:28:18;95869.03;;;13.75;100.00
16834;BME280;8533;48.426;10.868;2023-08-31T06:30:44;95861.94;;;13.75;100.00
16834;BME280;8533;48.426;10.868;2023-08-31T06:33:12;95812.41;;;13.49;100.00
16834;BME280;8533;48.426;10.868;2023-08-31T06:35:37;95868.91;;;14.00;100.00
16834;BME280;8533;48.426;10.868;2023-08-31T06:38:02;95876.44;;;14.12;100.00
16834;BME280;8533;48.426;10.868;2023-08-31T06:40:28;95877.19;;;14.18;100.00
16834;BME280;8533;48.426;10.868;2023-08-31T06:42:53;95882.41;;;14.23;100.00
16834;BME280;8533;48.426;10.868;2023-08-31T06:45:18;95887.38;;;14.29;100.00
16834;BME280;8533;48.426;10.868;2023-08-31T06:47:43;95887.63;;;14.33;100.00
16834;BME280;8533;48.426;10.868;2023-08-31T06:50:09;95864.31;;;14.16;100.00
16834;BME280;8533;48.426;10.868;2023-08-31T06:52:34;95900.72;;;14.38;100.00
16834;BME280;8533;48.426;10.868;2023-08-31T06:54:59;95893.66;;;14.33;100.00
16834;BME280;8533;48.426;10.868;2023-08-31T06:57:26;95875.06;;;14.20;100.00
16834;BME280;8533;48.426;10.868;2023-08-31T06:59:52;95904.47;;;14.32;100.00
16834;BME280;8533;48.426;10.868;2023-08-31T07:02:17;95908.63;;;14.43;100.00
16834;BME280;8533;48.426;10.868;2023-08-31T07:04:45;95911.47;;;14.46;100.00
16834;BME280;8533;48.426;10.868;2023-08-31T07:07:10;95917.47;;;14.52;100.00
16834;BME280;8533;48.426;10.868;2023-08-31T07:09:36;95914.25;;;14.65;100.00
16834;BME280;8533;48.426;10.868;2023-08-31T07:12:01;95905.22;;;14.71;100.00
16834;BME280;8533;48.426;10.868;2023-08-31T07:14:27;95906.28;;;14.75;100.00
16834;BME280;8533;48.426;10.868;2023-08-31T07:16:53;95879.69;;;14.72;100.00
16834;BME280;8533;48.426;10.868;2023-08-31T07:19:18;95907.03;;;15.05;100.00
16834;BME280;8533;48.426;10.868;2023-08-31T07:21:43;95900.66;;;15.11;100.00
16834;BME280;8533;48.426;10.868;2023-08-31T07:24:08;95924.19;;;15.31;100.00
16834;BME280;8533;48.426;10.868;2023-08-31T07:26:34;95869.31;;;15.09;100.00
16834;BME280;8533;48.426;10.868;2023-08-31T07:29:00;95928.53;;;15.41;100.00
16834;BME280;8533;48.426;10.868;2023-08-31T07:31:26;95915.97;;;15.33;100.00
16834;BME280;8533;48.426;10.868;2023-08-31T07:33:52;95931.84;;;15.56;100.00
16834;BME280;8533;48.426;10.868;2023-08-31T07:36:17;95933.06;;;15.64;100.00
16834;BME280;8533;48.426;10.868;2023-08-31T07:38:42;95894.84;;;15.38;100.00
16834;BME280;8533;48.426;10.868;2023-08-31T07:41:08;95925.00;;;15.50;100.00
16834;BME280;8533;48.426;10.868;2023-08-31T07:43:33;95901.00;;;15.28;100.00
16834;BME280;8533;48.426;10.868;2023-08-31T07:45:58;95931.84;;;15.51;100.00
16834;BME280;8533;48.426;10.868;2023-08-31T07:48:23;95938.63;;;15.62;100.00
16834;BME280;8533;48.426;10.868;2023-08-31T07:50:49;95941.25;;;15.62;100.00
16834;BME280;8533;48.426;10.868;2023-08-31T07:53:14;95847.13;;;14.92;100.00
16834;BME280;8533;48.426;10.868;2023-08-31T07:55:40;95948.09;;;15.63;100.00
16834;BME280;8533;48.426;10.868;2023-08-31T07:58:05;95953.78;;;15.47;100.00
16834;BME280;8533;48.426;10.868;2023-08-31T08:00:31;95953.66;;;15.33;100.00
16834;BME280;8533;48.426;10.868;2023-08-31T08:02:56;95958.97;;;15.28;100.00
16834;BME280;8533;48.426;10.868;2023-08-31T08:05:21;95961.63;;;15.28;100.00
16834;BME280;8533;48.426;10.868;2023-08-31T08:07:47;95952.66;;;15.29;100.00
16834;BME280;8533;48.426;10.868;2023-08-31T08:10:12;95956.63;;;15.26;100.00
16834;BME280;8533;48.426;10.868;2023-08-31T08:12:39;95960.00;;;15.32;100.00
16834;BME280;8533;48.426;10.868;2023-08-31T08:15:05;95965.31;;;15.27;100.00
16834;BME280;8533;48.426;10.868;2023-08-31T08:17:32;95975.13;;;15.21;100.00
16834;BME280;8533;48.426;10.868;2023-08-31T08:19:57;95971.63;;;15.26;100.00
16834;BME280;8533;48.426;10.868;2023-08-31T08:22:24;95928.78;;;14.92;100.00
16834;BME280;8533;48.426;10.868;2023-08-31T08:24:50;95964.66;;;15.11;100.00
16834;BME280;8533;48.426;10.868;2023-08-31T08:27:15;95981.22;;;15.17;100.00
16834;BME280;8533;48.426;10.868;2023-08-31T08:29:42;95970.25;;;15.05;100.00
16834;BME280;8533;48.426;10.868;2023-08-31T08:32:07;95984.16;;;15.10;100.00
16834;BME280;8533;48.426;10.868;2023-08-31T08:34:34;95994.44;;;15.12;100.00
16834;BME280;8533;48.426;10.868;2023-08-31T08:36:59;95915.06;;;14.61;100.00
16834;BME280;8533;48.426;10.868;2023-08-31T08:39:24;96003.91;;;15.13;100.00
16834;BME280;8533;48.426;10.868;2023-08-31T08:41:50;95999.16;;;15.15;100.00
16834;BME280;8533;48.426;10.868;2023-08-31T08:44:18;96011.03;;;15.12;100.00
16834;BME280;8533;48.426;10.868;2023-08-31T08:46:45;96013.91;;;15.16;100.00
16834;BME280;8533;48.426;10.868;2023-08-31T08:49:12;95964.38;;;14.84;100.00
16834;BME280;8533;48.426;10.868;2023-08-31T08:51:38;96002.78;;;15.24;100.00
16834;BME280;8533;48.426;10.868;2023-08-31T08:54:03;96001.31;;;15.37;100.00
16834;BME280;8533;48.426;10.868;2023-08-31T08:56:28;95986.50;;;15.41;100.00
16834;BME280;8533;48.426;10.868;2023-08-31T08:58:54;96001.22;;;15.76;100.00
16834;BME280;8533;48.426;10.868;2023-08-31T09:01:19;96003.06;;;15.99;100.00
16834;BME280;8533;48.426;10.868;2023-08-31T09:03:48;95994.47;;;16.12;100.00
16834;BME280;8533;48.426;10.868;2023-08-31T09:06:14;96011.75;;;16.42;100.00
16834;BME280;8533;48.426;10.868;2023-08-31T09:08:41;96003.50;;;16.86;100.00
16834;BME280;8533;48.426;10.868;2023-08-31T09:11:06;96005.84;;;17.20;100.00
16834;BME280;8533;48.426;10.868;2023-08-31T09:13:32;95997.72;;;17.49;98.17
16834;BME280;8533;48.426;10.868;2023-08-31T09:15:58;95993.34;;;17.85;94.85
16834;BME280;8533;48.426;10.868;2023-08-31T09:18:26;96000.50;;;17.99;89.65
16834;BME280;8533;48.426;10.868;2023-08-31T09:20:52;95999.81;;;17.79;88.96
16834;BME280;8533;48.426;10.868;2023-08-31T09:23:18;95989.97;;;17.52;90.53
16834;BME280;8533;48.426;10.868;2023-08-31T09:25:45;95963.00;;;17.37;91.15
16834;BME280;8533;48.426;10.868;2023-08-31T09:28:13;95996.97;;;18.03;87.11
16834;BME280;8533;48.426;10.868;2023-08-31T09:30:39;95988.63;;;18.23;83.77
16834;BME280;8533;48.426;10.868;2023-08-31T09:33:07;95987.94;;;18.67;74.76
16834;BME280;8533;48.426;10.868;2023-08-31T09:35:34;95988.84;;;19.08;67.25
16834;BME280;8533;48.426;10.868;2023-08-31T09:37:59;96003.38;;;18.52;67.88
16834;BME280;8533;48.426;10.868;2023-08-31T09:40:25;96005.34;;;18.46;71.50
16834;BME280;8533;48.426;10.868;2023-08-31T09:42:51;95970.31;;;17.72;70.44
16834;BME280;8533;48.426;10.868;2023-08-31T09:45:29;95899.97;;;16.84;73.01
16834;BME280;8533;48.426;10.868;2023-08-31T09:47:56;96017.28;;;17.34;77.28
16834;BME280;8533;48.426;10.868;2023-08-31T09:50:23;96033.16;;;17.15;80.16
16834;BME280;8533;48.426;10.868;2023-08-31T09:52:50;95916.50;;;16.38;81.47
16834;BME280;8533;48.426;10.868;2023-08-31T09:55:20;95994.44;;;16.73;80.49
16834;BME280;8533;48.426;10.868;2023-08-31T09:57:48;96035.88;;;16.78;81.45
16834;BME280;8533;48.426;10.868;2023-08-31T10:00:13;95986.56;;;16.50;81.97
16834;BME280;8533;48.426;10.868;2023-08-31T10:02:42;96026.50;;;16.67;83.35
16834;BME280;8533;48.426;10.868;2023-08-31T10:05:07;96023.94;;;16.62;85.02
16834;BME280;8533;48.426;10.868;2023-08-31T10:07:33;96016.13;;;16.52;87.35
16834;BME280;8533;48.426;10.868;2023-08-31T10:10:00;96018.13;;;16.60;86.65
16834;BME280;8533;48.426;10.868;2023-08-31T10:12:26;96013.81;;;16.69;86.84
16834;BME280;8533;48.426;10.868;2023-08-31T10:14:53;95874.22;;;15.87;88.72
16834;BME280;8533;48.426;10.868;2023-08-31T10:17:20;95998.34;;;16.57;92.74
16834;BME280;8533;48.426;10.868;2023-08-31T10:19:46;96018.03;;;16.70;94.34
16834;BME280;8533;48.426;10.868;2023-08-31T10:22:11;96005.88;;;16.69;93.34
16834;BME280;8533;48.426;10.868;2023-08-31T10:25:02;96011.16;;;16.69;98.65
16834;BME280;8533;48.426;10.868;2023-08-31T10:27:38;96009.44;;;16.78;94.95
16834;BME280;8533;48.426;10.868;2023-08-31T10:32:38;95920.50;;;16.17;91.78
16834;BME280;8533;48.426;10.868;2023-08-31T10:35:05;96020.34;;;16.90;90.04
16834;BME280;8533;48.426;10.868;2023-08-31T10:37:30;96021.91;;;16.91;91.04
16834;BME280;8533;48.426;10.868;2023-08-31T10:40:10;96001.84;;;16.71;89.86
16834;BME280;8533;48.426;10.868;2023-08-31T10:42:46;96003.06;;;16.60;88.29
16834;BME280;8533;48.426;10.868;2023-08-31T10:45:13;96028.19;;;16.58;89.54
16834;BME280;8533;48.426;10.868;2023-08-31T10:47:42;96018.81;;;16.47;91.41
16834;BME280;8533;48.426;10.868;2023-08-31T10:50:21;96028.03;;;16.49;89.53
16834;BME280;8533;48.426;10.868;2023-08-31T10:52:47;96014.31;;;16.47;87.40
16834;BME280;8533;48.426;10.868;2023-08-31T10:55:13;95962.06;;;16.07;86.68
16834;BME280;8533;48.426;10.868;2023-08-31T10:57:40;95993.63;;;16.17;92.51
16834;BME280;8533;48.426;10.868;2023-08-31T11:00:06;95975.88;;;15.98;85.81
16834;BME280;8533;48.426;10.868;2023-08-31T11:02:43;96018.06;;;16.22;86.24
16834;BME280;8533;48.426;10.868;2023-08-31T11:05:18;96019.28;;;16.11;88.24
16834;BME280;8533;48.426;10.868;2023-08-31T11:07:48;96013.38;;;16.19;87.60
16834;BME280;8533;48.426;10.868;2023-08-31T11:12:41;96029.22;;;16.19;87.94
16834;BME280;8533;48.426;10.868;2023-08-31T11:15:07;95986.56;;;16.12;87.81
16834;BME280;8533;48.426;10.868;2023-08-31T11:17:33;95996.47;;;16.39;87.08
16834;BME280;8533;48.426;10.868;2023-08-31T11:19:59;95996.63;;;16.48;78.87
16834;BME280;8533;48.426;10.868;2023-08-31T11:22:25;95904.50;;;15.90;79.84
16834;BME280;8533;48.426;10.868;2023-08-31T11:24:51;96003.88;;;16.61;76.19
16834;BME280;8533;48.426;10.868;2023-08-31T11:27:20;95970.94;;;16.34;76.35
16834;BME280;8533;48.426;10.868;2023-08-31T11:29:46;96006.88;;;16.73;75.19
16834;BME280;8533;48.426;10.868;2023-08-31T11:32:12;96011.59;;;16.76;74.96
16834;BME280;8533;48.426;10.868;2023-08-31T11:34:42;96006.31;;;16.76;74.70
16834;BME280;8533;48.426;10.868;2023-08-31T11:37:13;96014.44;;;16.79;76.21
16834;BME280;8533;48.426;10.868;2023-08-31T11:39:51;96013.84;;;16.83;75.67
16834;BME280;8533;48.426;10.868;2023-08-31T11:42:19;95875.63;;;15.98;74.73
16834;BME280;8533;48.426;10.868;2023-08-31T11:44:46;95833.50;;;15.93;74.57
16834;BME280;8533;48.426;10.868;2023-08-31T11:47:13;95992.34;;;17.22;71.83
16834;BME280;8533;48.426;10.868;2023-08-31T11:49:40;96020.78;;;17.62;70.34
16834;BME280;8533;48.426;10.868;2023-08-31T11:52:06;96018.63;;;17.78;69.46
16834;BME280;8533;48.426;10.868;2023-08-31T11:54:31;96020.13;;;17.98;67.83
16834;BME280;8533;48.426;10.868;2023-08-31T11:56:56;96011.75;;;18.18;66.20
16834;BME280;8533;48.426;10.868;2023-08-31T11:59:21;96009.75;;;18.64;65.35
16834;BME280;8533;48.426;10.868;2023-08-31T12:01:49;95990.53;;;19.26;62.76
16834;BME280;8533;48.426;10.868;2023-08-31T12:04:16;96022.81;;;20.20;59.10
16834;BME280;8533;48.426;10.868;2023-08-31T12:06:49;95979.28;;;20.47;58.16
16834;BME280;8533;48.426;10.868;2023-08-31T12:09:15;96007.91;;;20.85;53.59
16834;BME280;8533;48.426;10.868;2023-08-31T12:11:40;96000.56;;;21.25;54.15
16834;BME280;8533;48.426;10.868;2023-08-31T12:14:21;96025.41;;;21.46;53.37
16834;BME280;8533;48.426;10.868;2023-08-31T12:16:47;96009.63;;;21.88;53.00
16834;BME280;8533;48.426;10.868;2023-08-31T12:19:12;95997.84;;;22.27;51.64
16834;BME280;8533;48.426;10.868;2023-08-31T12:21:38;96004.25;;;22.05;50.79
16834;BME280;8533;48.426;10.868;2023-08-31T12:24:05;96001.97;;;22.16;49.29
16834;BME280;8533;48.426;10.868;2023-08-31T12:26:31;96002.22;;;22.31;50.46
16834;BME280;8533;48.426;10.868;2023-08-31T12:28:56;95995.91;;;22.36;47.71
16834;BME280;8533;48.426;10.868;2023-08-31T12:31:22;96013.81;;;22.35;49.00
16834;BME280;8533;48.426;10.868;2023-08-31T12:33:48;96011.34;;;22.22;46.75
16834;BME280;8533;48.426;10.868;2023-08-31T12:36:13;95996.00;;;21.25;50.63
16834;BME280;8533;48.426;10.868;2023-08-31T12:38:39;96007.63;;;21.21;48.10
16834;BME280;8533;48.426;10.868;2023-08-31T12:41:04;96009.47;;;20.69;48.62
16834;BME280;8533;48.426;10.868;2023-08-31T12:43:30;96009.06;;;20.27;49.83
16834;BME280;8533;48.426;10.868;2023-08-31T12:45:56;96003.03;;;20.44;49.69
16834;BME280;8533;48.426;10.868;2023-08-31T12:48:22;96003.22;;;20.65;48.64
16834;BME280;8533;48.426;10.868;2023-08-31T12:50:47;95994.78;;;20.97;50.02
16834;BME280;8533;48.426;10.868;2023-08-31T12:53:14;96004.94;;;20.86;47.70
16834;BME280;8533;48.426;10.868;2023-08-31T12:55:39;95972.84;;;20.31;48.86
16834;BME280;8533;48.426;10.868;2023-08-31T12:58:05;96002.91;;;20.49;47.91
16834;BME280;8533;48.426;10.868;2023-08-31T13:00:30;96003.69;;;20.58;47.91
16834;BME280;8533;48.426;10.868;2023-08-31T13:02:55;96005.78;;;20.22;49.60
16834;BME280;8533;48.426;10.868;2023-08-31T13:05:21;95974.59;;;19.88;49.55